Fort Ogden, Florida
Current Conditions -  °F | °C
As of 2:53 PM on Wednesday 26 Nov 2014 (Local Time) from KPGD Reporting Station
Clear Clear  
Wind Chill: 61°   Ceiling: Unl
Heat Index: 61°   Visibility: 10mi
Dew Point: 51°   Wind: 9mph
Humidity: 70%   Direction: 10°N
Pressure: 30.17"   Gusts: NA
Location:  27.09°N, 81.95°W
Report Text: KPGD 261953Z 01008KT 10SM CLR 16/11 A3017 RMK AO2 SLP216 T01610106
Loading
Personal Weather Stations






























Interactive Weather Map New forecast layout! Learn more

10-Day Weather Forecast

Advertisements
Track Severe Weather on mobile